Time;durP1;ratioP1;P1;durP2;ratioP2;P2;SDS_P1;SDS_P2;PMS_P1;PMS_P2;Temp;Humidity;BMP_temperature;BMP_pressure;BME280_temperature;BME280_humidity;BME280_pressure;Samples;Min_cycle;Max_cycle;Signal;HPM_P1;HPM_P2
2022/11/27 00:02:07;;;;;;;10.77;5.93;;;4.00;99.90;;;;;;4978024;28;20180;-89
2022/11/27 00:04:32;;;;;;;14.37;5.83;;;4.00;99.90;;;;;;4977759;28;20195;-91
2022/11/27 00:06:59;;;;;;;12.63;5.80;;;4.00;99.90;;;;;;4976680;28;20188;-89
2022/11/27 00:09:25;;;;;;;13.10;5.97;;;3.90;99.90;;;;;;4976607;28;20192;-89
2022/11/27 00:11:50;;;;;;;10.90;4.93;;;3.90;99.90;;;;;;4976608;28;20184;-88
2022/11/27 00:14:16;;;;;;;7.67;5.37;;;3.90;99.90;;;;;;4976445;28;20176;-87
2022/11/27 00:16:42;;;;;;;14.03;5.43;;;3.90;99.90;;;;;;4976566;28;20227;-86
2022/11/27 00:19:10;;;;;;;12.93;5.50;;;3.90;99.90;;;;;;4977882;28;20587;-89
2022/11/27 00:21:36;;;;;;;14.63;5.57;;;3.80;99.90;;;;;;4976512;28;20181;-84
2022/11/27 00:24:06;;;;;;;13.77;5.63;;;3.90;99.90;;;;;;4976097;28;20608;-86
2022/11/27 00:26:32;;;;;;;8.73;4.63;;;3.80;99.90;;;;;;4991780;28;20176;-85
2022/11/27 00:28:59;;;;;;;12.07;5.90;;;3.90;99.90;;;;;;5012260;28;20184;-85
2022/11/27 00:31:28;;;;;;;11.77;5.50;;;3.90;99.90;;;;;;5011946;28;20187;-91
2022/11/27 00:33:55;;;;;;;14.90;5.57;;;3.80;99.90;;;;;;4996706;28;20172;-90
2022/11/27 00:36:22;;;;;;;12.13;5.73;;;3.80;99.90;;;;;;4996516;28;20662;-90
2022/11/27 00:38:48;;;;;;;13.87;5.80;;;3.80;99.90;;;;;;4996510;28;20176;-91
2022/11/27 00:41:17;;;;;;;10.93;5.47;;;3.70;99.90;;;;;;5011586;28;20184;-90
2022/11/27 00:43:47;;;;;;;12.73;5.70;;;3.60;99.90;;;;;;5011593;28;20212;-88
2022/11/27 00:46:14;;;;;;;9.83;5.33;;;3.60;99.90;;;;;;5011738;28;20283;-89
2022/11/27 00:48:41;;;;;;;12.73;5.33;;;3.50;99.90;;;;;;4996377;28;20227;-90
2022/11/27 00:51:09;;;;;;;14.17;5.40;;;3.50;99.90;;;;;;5011852;28;20274;-90
2022/11/27 00:53:36;;;;;;;15.67;6.50;;;3.50;99.90;;;;;;5011578;28;20191;-89
2022/11/27 00:56:02;;;;;;;11.60;5.17;;;3.50;99.90;;;;;;5010457;28;20306;-84
2022/11/27 00:58:29;;;;;;;12.10;5.03;;;3.60;99.90;;;;;;4994882;28;20215;-85
2022/11/27 01:01:01;;;;;;;14.07;5.27;;;3.60;99.90;;;;;;4994970;28;20184;-88
2022/11/27 01:03:28;;;;;;;10.57;5.43;;;3.50;99.90;;;;;;4995190;28;20274;-83
2022/11/27 01:05:54;;;;;;;12.87;5.57;;;3.60;99.90;;;;;;5011464;28;20527;-85
2022/11/27 01:08:20;;;;;;;9.63;4.97;;;3.60;99.90;;;;;;4995937;28;20183;-85
2022/11/27 01:10:55;;;;;;;12.50;5.50;;;3.60;99.90;;;;;;4994821;28;20633;-85
2022/11/27 01:13:34;;;;;;;14.63;5.80;;;3.60;99.90;;;;;;4994715;28;20176;-85
2022/11/27 01:16:00;;;;;;;11.13;5.37;;;3.60;99.90;;;;;;4995466;28;20284;-87
2022/11/27 01:18:27;;;;;;;17.03;5.87;;;3.60;99.90;;;;;;4995097;28;20187;-85
2022/11/27 01:20:53;;;;;;;13.70;6.33;;;3.60;99.90;;;;;;5011002;28;20176;-84
2022/11/27 01:23:20;;;;;;;13.67;6.93;;;3.60;99.90;;;;;;4994602;28;20922;-84
2022/11/27 01:25:46;;;;;;;13.70;5.33;;;3.50;99.90;;;;;;4994496;28;20226;-89
2022/11/27 01:28:12;;;;;;;11.47;6.33;;;3.60;99.90;;;;;;4994201;28;20176;-89
2022/11/27 01:30:38;;;;;;;13.87;5.63;;;3.50;99.90;;;;;;4995694;28;20242;-88
2022/11/27 01:33:03;;;;;;;10.10;5.73;;;3.50;99.90;;;;;;4993995;28;20282;-89
2022/11/27 01:35:29;;;;;;;7.53;4.37;;;3.40;99.90;;;;;;5010596;28;20275;-89
2022/11/27 01:37:55;;;;;;;10.03;5.10;;;3.30;99.90;;;;;;4994259;28;20191;-88
2022/11/27 01:40:21;;;;;;;8.20;4.80;;;3.20;99.90;;;;;;5010491;28;20524;-89
2022/11/27 01:42:48;;;;;;;10.33;5.17;;;3.30;99.90;;;;;;4995259;28;20575;-87
2022/11/27 01:45:19;;;;;;;7.87;4.97;;;3.30;99.90;;;;;;5010592;28;20183;-86
2022/11/27 01:47:51;;;;;;;9.43;4.60;;;3.30;99.90;;;;;;4994866;28;20619;-85
2022/11/27 01:50:34;;;;;;;12.40;4.60;;;3.30;99.90;;;;;;5010715;28;20282;-85
2022/11/27 01:53:14;;;;;;;11.70;4.83;;;3.20;99.90;;;;;;5010498;28;20180;-88
2022/11/27 01:55:52;;;;;;;9.43;4.63;;;3.20;99.90;;;;;;5010247;28;20203;-89
2022/11/27 01:58:23;;;;;;;9.43;5.00;;;3.20;99.90;;;;;;5010245;28;20175;-88
2022/11/27 02:00:49;;;;;;;8.80;4.77;;;3.10;99.90;;;;;;4995280;28;20250;-87
2022/11/27 02:03:16;;;;;;;7.93;4.07;;;3.10;99.90;;;;;;4993584;28;20279;-89
2022/11/27 02:05:42;;;;;;;13.23;5.17;;;3.10;99.90;;;;;;5010485;28;20172;-85
2022/11/27 02:08:12;;;;;;;6.03;4.33;;;3.10;99.90;;;;;;4993943;28;20191;-85
2022/11/27 02:10:59;;;;;;;7.87;4.67;;;2.90;99.90;;;;;;5013158;28;20277;-85
2022/11/27 02:13:42;;;;;;;8.47;4.40;;;2.80;99.90;;;;;;5029771;28;20225;-87
2022/11/27 02:16:23;;;;;;;7.03;4.63;;;2.80;99.90;;;;;;5029508;28;20226;-87
2022/11/27 02:19:12;;;;;;;10.70;5.53;;;2.70;99.90;;;;;;5013102;28;20606;-88
2022/11/27 02:21:49;;;;;;;9.67;5.17;;;2.80;99.90;;;;;;5013651;28;20179;-89
2022/11/27 02:24:46;;;;;;;10.27;5.33;;;2.90;99.90;;;;;;5014603;28;20202;-87
2022/11/27 02:27:33;;;;;;;9.10;4.77;;;2.90;99.90;;;;;;5014686;28;20187;-89
2022/11/27 02:30:01;;;;;;;6.87;4.30;;;2.80;99.90;;;;;;5018543;28;20155;-89
2022/11/27 02:32:52;;;;;;;9.20;3.83;;;2.70;99.90;;;;;;5031102;28;20199;-90
2022/11/27 02:35:17;;;;;;;4.70;3.67;;;2.60;99.90;;;;;;5014040;28;20242;-89
2022/11/27 02:37:58;;;;;;;6.63;3.77;;;2.60;99.90;;;;;;5014153;28;20188;-88
2022/11/27 02:40:33;;;;;;;10.57;4.67;;;2.60;99.90;;;;;;4997655;28;20179;-88
2022/11/27 02:43:14;;;;;;;8.07;4.67;;;2.60;99.90;;;;;;4998747;28;20238;-87
2022/11/27 02:45:43;;;;;;;10.37;5.53;;;2.50;99.90;;;;;;4998715;28;20190;-88
2022/11/27 02:48:11;;;;;;;8.87;4.90;;;2.50;99.90;;;;;;4998214;28;20311;-88
2022/11/27 02:50:40;;;;;;;8.87;5.33;;;2.50;99.90;;;;;;5013798;28;20199;-88
2022/11/27 02:53:22;;;;;;;14.40;4.70;;;2.70;99.90;;;;;;4997477;28;20171;-88
2022/11/27 02:55:51;;;;;;;8.83;5.03;;;2.60;99.90;;;;;;5013676;28;20642;-87
2022/11/27 02:58:21;;;;;;;6.87;4.73;;;2.50;99.90;;;;;;4998388;28;20180;-88
2022/11/27 03:00:48;;;;;;;9.93;5.07;;;2.60;99.90;;;;;;4997484;28;20184;-89
2022/11/27 03:03:21;;;;;;;13.20;5.10;;;2.60;99.90;;;;;;4998024;28;20215;-88
2022/11/27 03:05:50;;;;;;;6.93;4.50;;;2.60;99.90;;;;;;4998508;28;20168;-88
2022/11/27 03:08:46;;;;;;;8.47;4.90;;;2.50;99.90;;;;;;4998116;28;20264;-86
2022/11/27 03:11:14;;;;;;;10.20;4.70;;;2.40;99.90;;;;;;5012904;28;20211;-88
2022/11/27 03:13:44;;;;;;;10.23;5.70;;;2.40;99.90;;;;;;5461953;22;20545;-87
2022/11/27 03:16:37;;;;;;;7.73;4.50;;;2.40;99.90;;;;;;4998176;28;20218;-89
2022/11/27 03:19:21;;;;;;;11.40;4.97;;;2.40;99.90;;;;;;4997822;28;20259;-87
2022/11/27 03:22:05;;;;;;;10.50;4.80;;;2.40;99.90;;;;;;4997718;28;20180;-87
2022/11/27 03:24:33;;;;;;;8.07;4.60;;;2.40;99.90;;;;;;4997624;28;20176;-88
2022/11/27 03:27:00;;;;;;;9.53;4.77;;;2.40;99.90;;;;;;4997567;28;20219;-87
2022/11/27 03:29:38;;;;;;;9.83;5.00;;;2.40;99.90;;;;;;4996314;28;20188;-88
2022/11/27 03:32:04;;;;;;;8.03;4.93;;;2.40;99.90;;;;;;4996477;28;20191;-89
2022/11/27 03:34:31;;;;;;;8.03;4.73;;;2.40;99.90;;;;;;4996206;28;20692;-89
2022/11/27 03:36:57;;;;;;;10.73;4.97;;;2.20;99.90;;;;;;4996383;28;20211;-88
2022/11/27 03:39:23;;;;;;;10.17;4.57;;;2.20;99.90;;;;;;4996783;28;20556;-88
2022/11/27 03:42:08;;;;;;;10.40;4.50;;;2.20;99.90;;;;;;4996060;28;20187;-88
2022/11/27 03:45:08;;;;;;;10.43;4.73;;;2.30;99.90;;;;;;4997793;28;20172;-87
2022/11/27 03:48:04;;;;;;;12.33;5.00;;;2.30;99.90;;;;;;4996210;28;20187;-84
2022/11/27 03:50:53;;;;;;;9.47;4.50;;;2.30;99.90;;;;;;4995764;28;20191;-88
2022/11/27 03:53:22;;;;;;;9.60;4.83;;;2.30;99.90;;;;;;4996159;28;20183;-87
2022/11/27 03:56:07;;;;;;;12.80;4.83;;;2.20;99.90;;;;;;4995877;28;20550;-88
2022/11/27 03:58:38;;;;;;;7.23;5.17;;;2.20;99.90;;;;;;4997334;28;20172;-89
2022/11/27 04:01:08;;;;;;;9.87;4.93;;;2.20;99.90;;;;;;4997422;28;20173;-88
2022/11/27 04:03:34;;;;;;;9.47;5.27;;;2.20;99.90;;;;;;4995725;28;20517;-87
2022/11/27 04:06:01;;;;;;;12.60;5.63;;;2.20;99.90;;;;;;4995808;28;20629;-85
2022/11/27 04:08:26;;;;;;;9.57;5.30;;;2.10;99.90;;;;;;4995967;28;20500;-85
2022/11/27 04:10:52;;;;;;;9.33;4.90;;;2.20;99.90;;;;;;4997011;28;20183;-85
2022/11/27 04:13:18;;;;;;;10.20;5.47;;;2.00;99.90;;;;;;4995374;28;20235;-85
2022/11/27 04:15:44;;;;;;;12.50;5.00;;;1.90;99.90;;;;;;4995648;28;20206;-85
2022/11/27 04:18:09;;;;;;;6.30;4.43;;;2.00;99.90;;;;;;4996042;28;20172;-88
2022/11/27 04:20:35;;;;;;;7.80;4.20;;;1.90;99.90;;;;;;4995822;28;20176;-85
2022/11/27 04:23:01;;;;;;;6.90;4.23;;;1.80;99.90;;;;;;4995535;28;20192;-84
2022/11/27 04:25:29;;;;;;;7.47;4.50;;;1.80;99.90;;;;;;4995407;28;20231;-87
2022/11/27 04:27:55;;;;;;;7.10;4.27;;;1.80;99.90;;;;;;4995597;28;20172;-88
2022/11/27 04:30:21;;;;;;;12.93;5.23;;;1.80;99.90;;;;;;4996695;28;20517;-88
2022/11/27 04:32:46;;;;;;;7.23;4.40;;;1.80;99.90;;;;;;4996408;28;20238;-87
2022/11/27 04:35:12;;;;;;;9.90;4.80;;;1.90;99.90;;;;;;4996607;28;20176;-87
2022/11/27 04:37:38;;;;;;;9.33;4.37;;;1.90;99.90;;;;;;4995121;28;20208;-88
2022/11/27 04:40:04;;;;;;;6.47;4.27;;;2.00;99.90;;;;;;4996435;28;20172;-89
2022/11/27 04:42:30;;;;;;;6.73;3.80;;;1.80;99.90;;;;;;4996250;28;20200;-88
2022/11/27 04:45:02;;;;;;;11.03;5.00;;;1.60;99.90;;;;;;4995175;28;20659;-87
2022/11/27 04:47:31;;;;;;;6.77;4.07;;;1.40;99.90;;;;;;4996231;28;20661;-87
2022/11/27 04:49:56;;;;;;;7.47;4.07;;;1.30;99.90;;;;;;4995209;28;20580;-84
2022/11/27 04:52:22;;;;;;;6.90;4.43;;;1.30;99.90;;;;;;4994948;28;20207;-84
2022/11/27 04:54:49;;;;;;;11.30;4.70;;;1.30;99.90;;;;;;4996124;28;20258;-84
2022/11/27 04:57:14;;;;;;;5.80;3.93;;;1.40;99.90;;;;;;4995051;28;20211;-87
2022/11/27 04:59:40;;;;;;;7.93;3.60;;;1.40;99.90;;;;;;4994881;28;20191;-85
2022/11/27 05:02:06;;;;;;;8.53;3.83;;;1.40;99.90;;;;;;4994953;28;20266;-84
2022/11/27 05:04:32;;;;;;;9.23;4.10;;;1.40;99.90;;;;;;4995999;28;20168;-84
2022/11/27 05:06:58;;;;;;;6.67;3.73;;;1.40;99.90;;;;;;4996091;28;20167;-86
2022/11/27 05:09:23;;;;;;;5.50;3.37;;;1.40;99.90;;;;;;4996014;28;20172;-88
2022/11/27 05:11:49;;;;;;;7.00;3.33;;;1.30;99.90;;;;;;4994646;28;20247;-88
2022/11/27 05:14:18;;;;;;;7.57;3.83;;;1.40;99.90;;;;;;4994413;28;20568;-88
2022/11/27 05:16:47;;;;;;;6.37;4.20;;;1.30;99.90;;;;;;4994649;28;20207;-88
2022/11/27 05:19:15;;;;;;;4.97;3.63;;;1.30;99.90;;;;;;4995873;28;20176;-88
2022/11/27 05:21:41;;;;;;;4.53;3.20;;;1.30;99.90;;;;;;4994438;28;20706;-88
2022/11/27 05:24:08;;;;;;;6.17;3.37;;;1.40;99.90;;;;;;4995720;28;20622;-88
2022/11/27 05:26:34;;;;;;;8.40;3.70;;;1.30;99.90;;;;;;4994348;28;20191;-87
2022/11/27 05:29:00;;;;;;;7.57;3.70;;;1.30;99.90;;;;;;4994527;28;20179;-87
2022/11/27 05:31:25;;;;;;;7.87;4.13;;;1.20;99.90;;;;;;4994220;28;20633;-88
2022/11/27 05:33:51;;;;;;;6.87;3.50;;;1.20;99.90;;;;;;4995430;28;20175;-84
2022/11/27 05:36:17;;;;;;;6.07;3.70;;;1.10;99.90;;;;;;4995451;28;20250;-84
2022/11/27 05:38:42;;;;;;;8.10;4.13;;;1.20;99.90;;;;;;4994323;28;20176;-84
2022/11/27 05:41:08;;;;;;;7.60;3.83;;;1.20;99.90;;;;;;4994243;28;20183;-83
2022/11/27 05:43:34;;;;;;;6.57;4.60;;;1.20;99.90;;;;;;4995432;28;20226;-83
2022/11/27 05:46:05;;;;;;;7.93;4.37;;;1.30;99.90;;;;;;4995459;28;20195;-84
2022/11/27 05:48:31;;;;;;;10.97;4.50;;;1.20;99.90;;;;;;4995223;28;20561;-84
2022/11/27 05:50:57;;;;;;;10.93;6.13;;;1.10;99.90;;;;;;4993834;28;20622;-86
2022/11/27 05:53:23;;;;;;;11.30;5.77;;;1.10;99.90;;;;;;4993566;28;20176;-87
2022/11/27 05:55:51;;;;;;;12.47;5.10;;;1.10;99.90;;;;;;4995141;28;20207;-88
2022/11/27 05:58:17;;;;;;;12.43;4.97;;;1.10;99.90;;;;;;4995210;28;20241;-88
2022/11/27 06:00:44;;;;;;;10.83;4.40;;;1.10;99.90;;;;;;4994979;28;20176;-88
2022/11/27 06:03:09;;;;;;;10.63;4.27;;;1.00;99.90;;;;;;4994603;28;20179;-87
2022/11/27 06:05:39;;;;;;;9.53;4.97;;;1.00;99.90;;;;;;4993768;28;20650;-87
2022/11/27 06:08:05;;;;;;;7.07;4.07;;;1.10;99.90;;;;;;4994961;28;20247;-87
2022/11/27 06:10:31;;;;;;;12.03;5.10;;;1.10;99.90;;;;;;4994891;28;20255;-88
2022/11/27 06:12:56;;;;;;;9.63;5.00;;;1.10;99.90;;;;;;4994835;28;20179;-87
2022/11/27 06:15:22;;;;;;;11.60;5.57;;;1.20;99.90;;;;;;4983733;28;20168;-83
2022/11/27 06:17:50;;;;;;;7.53;5.10;;;1.20;99.90;;;;;;4981730;28;20611;-86
2022/11/27 06:20:16;;;;;;;13.77;5.70;;;1.20;99.90;;;;;;4983543;28;20230;-87
2022/11/27 06:22:42;;;;;;;8.67;4.67;;;1.20;99.90;;;;;;4980087;28;20188;-86
2022/11/27 06:25:08;;;;;;;9.63;4.53;;;1.20;99.90;;;;;;4999973;28;20230;-87
2022/11/27 06:27:35;;;;;;;11.53;5.30;;;1.00;99.90;;;;;;4979365;28;20184;-85
2022/11/27 06:30:01;;;;;;;7.17;4.80;;;0.90;99.90;;;;;;4975425;28;20264;-86
2022/11/27 06:32:28;;;;;;;11.00;4.53;;;0.90;99.90;;;;;;4975367;28;20180;-84
2022/11/27 06:34:53;;;;;;;8.60;5.00;;;0.90;99.90;;;;;;4974125;28;20189;-88
2022/11/27 06:37:19;;;;;;;9.60;4.83;;;0.90;99.90;;;;;;4975308;28;20216;-87
2022/11/27 06:39:47;;;;;;;12.00;4.93;;;0.90;99.90;;;;;;4975742;28;20177;-88
2022/11/27 06:42:13;;;;;;;6.13;4.03;;;0.90;99.90;;;;;;4974260;28;20247;-88
2022/11/27 06:44:38;;;;;;;8.07;4.57;;;0.90;99.90;;;;;;4973466;28;20181;-85
2022/11/27 06:47:04;;;;;;;8.63;4.80;;;0.90;99.90;;;;;;4991017;28;20195;-88
2022/11/27 06:49:30;;;;;;;10.97;4.63;;;0.90;99.90;;;;;;4982299;28;20176;-86
2022/11/27 06:51:56;;;;;;;12.37;5.60;;;0.90;99.90;;;;;;4974913;28;20190;-86
2022/11/27 06:54:21;;;;;;;11.63;4.50;;;1.00;99.90;;;;;;4996493;28;20185;-86
2022/11/27 06:56:49;;;;;;;5.90;4.20;;;0.90;99.90;;;;;;4974748;28;20208;-86
2022/11/27 06:59:15;;;;;;;9.77;4.83;;;0.90;99.90;;;;;;4974842;28;20622;-86
2022/11/27 07:01:41;;;;;;;6.97;4.87;;;0.80;99.90;;;;;;4973774;28;20189;-88
2022/11/27 07:04:12;;;;;;;8.30;5.00;;;0.80;99.90;;;;;;4974746;28;20520;-87
2022/11/27 07:06:38;;;;;;;10.93;5.23;;;0.80;99.90;;;;;;4973616;28;20188;-88
2022/11/27 07:09:04;;;;;;;8.23;4.90;;;0.80;99.90;;;;;;4974874;28;20169;-88
2022/11/27 07:11:30;;;;;;;9.40;5.30;;;0.90;99.90;;;;;;4973693;28;20281;-83
2022/11/27 07:14:01;;;;;;;8.30;4.90;;;0.90;99.90;;;;;;4973430;28;20224;-83
2022/11/27 07:16:29;;;;;;;7.67;4.67;;;1.00;99.90;;;;;;4976197;28;20719;-90
2022/11/27 07:18:59;;;;;;;8.40;5.33;;;1.00;99.90;;;;;;4977162;28;20192;-89
2022/11/27 07:21:26;;;;;;;9.10;5.37;;;1.00;99.90;;;;;;4982106;28;20180;-90
2022/11/27 07:23:52;;;;;;;9.70;5.20;;;1.00;99.90;;;;;;4997438;28;20309;-90
2022/11/27 07:26:22;;;;;;;10.27;4.97;;;1.10;99.90;;;;;;4988033;28;20317;-91
2022/11/27 07:28:48;;;;;;;9.50;5.20;;;1.00;99.90;;;;;;4983138;28;20308;-89
2022/11/27 07:31:19;;;;;;;8.13;4.90;;;1.00;99.90;;;;;;5011092;28;20184;-91
2022/11/27 07:33:45;;;;;;;8.20;4.87;;;1.10;99.90;;;;;;4991689;28;20200;-83
2022/11/27 07:36:17;;;;;;;10.03;5.23;;;1.10;99.90;;;;;;5001956;28;20554;-85
2022/11/27 07:38:44;;;;;;;11.03;4.97;;;0.90;99.90;;;;;;4983428;28;20180;-86
2022/11/27 07:41:10;;;;;;;8.97;4.90;;;0.90;99.90;;;;;;4977631;28;20262;-87
2022/11/27 07:43:36;;;;;;;9.97;5.40;;;1.00;99.90;;;;;;4992764;28;20180;-91
2022/11/27 07:46:03;;;;;;;11.13;5.80;;;1.00;99.90;;;;;;4980171;28;20181;-87
2022/11/27 07:48:29;;;;;;;8.90;5.20;;;1.10;99.90;;;;;;5000223;28;20173;-89
2022/11/27 07:50:55;;;;;;;8.17;5.50;;;1.10;99.90;;;;;;4982932;28;20187;-90
2022/11/27 07:53:20;;;;;;;9.23;5.37;;;1.10;99.90;;;;;;4986536;28;20243;-87
2022/11/27 07:55:46;;;;;;;8.53;5.43;;;1.20;99.90;;;;;;4983475;28;20216;-89
2022/11/27 07:58:14;;;;;;;7.80;5.23;;;1.20;99.90;;;;;;5003048;28;20184;-90
2022/11/27 08:00:40;;;;;;;8.53;5.67;;;1.20;99.90;;;;;;5005371;28;20168;-83
2022/11/27 08:03:05;;;;;;;11.20;5.80;;;1.30;99.90;;;;;;5003720;28;20207;-89
2022/11/27 08:05:35;;;;;;;12.60;6.33;;;1.30;99.90;;;;;;4999322;28;20184;-88
2022/11/27 08:08:03;;;;;;;12.27;6.20;;;1.40;99.90;;;;;;4988463;28;20517;-90
2022/11/27 08:10:29;;;;;;;12.00;6.10;;;1.40;99.90;;;;;;4985658;28;20179;-87
2022/11/27 08:12:56;;;;;;;10.43;5.87;;;1.40;99.90;;;;;;4996804;28;20608;-91
2022/11/27 08:15:22;;;;;;;10.23;6.30;;;1.40;99.90;;;;;;4983662;28;20173;-87
2022/11/27 08:17:48;;;;;;;10.33;5.50;;;1.50;99.90;;;;;;4994492;28;20297;-89
2022/11/27 08:20:14;;;;;;;11.00;6.07;;;1.40;99.90;;;;;;4997097;28;20200;-89
2022/11/27 08:22:40;;;;;;;10.27;5.50;;;1.50;99.90;;;;;;5006108;28;20207;-89
2022/11/27 08:25:06;;;;;;;12.43;5.97;;;1.50;99.90;;;;;;4993360;28;20180;-87
2022/11/27 08:27:32;;;;;;;7.80;5.17;;;1.50;99.90;;;;;;4975582;28;20206;-89
2022/11/27 08:29:58;;;;;;;11.23;6.47;;;1.60;99.90;;;;;;4976055;28;20157;-88
2022/11/27 08:32:24;;;;;;;10.23;5.67;;;1.60;99.90;;;;;;4975803;28;20180;-88
2022/11/27 08:34:50;;;;;;;11.60;6.00;;;1.60;99.90;;;;;;4991252;28;20179;-85
2022/11/27 08:37:16;;;;;;;12.10;5.20;;;1.70;99.90;;;;;;4991771;28;20212;-88
2022/11/27 08:39:42;;;;;;;9.73;5.30;;;1.70;99.90;;;;;;4976774;28;20618;-86
2022/11/27 08:42:07;;;;;;;13.37;6.23;;;1.80;99.90;;;;;;4991850;28;20692;-85
2022/11/27 08:44:33;;;;;;;10.87;5.90;;;1.80;99.90;;;;;;4991946;28;20192;-90
2022/11/27 08:46:59;;;;;;;12.63;6.63;;;1.90;99.90;;;;;;4991803;28;20212;-90
2022/11/27 08:49:24;;;;;;;13.37;6.37;;;1.90;99.90;;;;;;4976990;28;20185;-90
2022/11/27 08:51:50;;;;;;;10.63;6.07;;;1.90;99.90;;;;;;4991634;28;20185;-90
2022/11/27 08:54:16;;;;;;;11.13;5.40;;;2.00;99.90;;;;;;4992052;28;20192;-88
2022/11/27 08:56:42;;;;;;;12.40;6.90;;;2.00;99.90;;;;;;4981805;28;20222;-86
2022/11/27 08:59:07;;;;;;;10.33;6.20;;;2.10;99.90;;;;;;5000613;28;20180;-90
2022/11/27 09:01:33;;;;;;;13.33;7.13;;;2.10;99.90;;;;;;4986465;28;20260;-91
2022/11/27 09:03:59;;;;;;;10.33;6.67;;;2.20;99.90;;;;;;4983760;28;20192;-93
2022/11/27 09:06:27;;;;;;;9.77;6.10;;;2.20;99.90;;;;;;4988177;28;20172;-89
2022/11/27 09:08:58;;;;;;;9.73;5.50;;;2.30;99.90;;;;;;5010491;28;20190;-92
2022/11/27 09:11:25;;;;;;;11.67;6.20;;;2.40;99.90;;;;;;5010524;28;20522;-90
2022/11/27 09:13:51;;;;;;;12.40;6.40;;;2.40;99.90;;;;;;5010080;28;20265;-88
2022/11/27 09:16:18;;;;;;;10.13;6.87;;;2.50;99.90;;;;;;5010621;28;20682;-86
2022/11/27 09:18:45;;;;;;;18.80;6.53;;;2.60;99.90;;;;;;4988179;28;20247;-85
2022/11/27 09:21:13;;;;;;;14.27;6.80;;;2.60;99.90;;;;;;4995363;28;20241;-88
2022/11/27 09:23:39;;;;;;;9.87;6.30;;;2.70;99.90;;;;;;4994122;28;20190;-87
2022/11/27 09:26:09;;;;;;;11.33;6.50;;;2.70;99.90;;;;;;4994432;28;20179;-86
2022/11/27 09:28:35;;;;;;;8.97;5.90;;;2.70;99.90;;;;;;4994272;28;20234;-92
2022/11/27 09:31:03;;;;;;;10.27;6.57;;;2.80;99.90;;;;;;4995245;28;20164;-87
2022/11/27 09:33:31;;;;;;;12.50;5.57;;;2.80;99.90;;;;;;4995308;28;20179;-94
2022/11/27 09:35:57;;;;;;;14.10;6.20;;;2.80;99.90;;;;;;4993886;28;20500;-92
2022/11/27 09:38:23;;;;;;;16.37;6.90;;;2.90;99.90;;;;;;4994677;28;20175;-91
2022/11/27 09:40:51;;;;;;;11.63;6.10;;;2.90;99.90;;;;;;4993923;28;20180;-92
2022/11/27 09:43:26;;;;;;;9.60;6.30;;;3.00;99.90;;;;;;4993661;28;20581;-87
2022/11/27 09:45:55;;;;;;;15.90;6.90;;;2.90;99.90;;;;;;4974476;28;20184;-86
2022/11/27 09:48:35;;;;;;;12.67;6.33;;;3.00;99.90;;;;;;4974413;28;20436;-89
2022/11/27 09:51:24;;;;;;;10.43;6.70;;;3.00;99.90;;;;;;4989867;28;20190;-87
2022/11/27 09:54:01;;;;;;;12.37;6.73;;;3.10;99.90;;;;;;4989758;28;20650;-93
2022/11/27 09:56:28;;;;;;;12.77;6.60;;;3.20;99.90;;;;;;4974779;28;20294;-89
2022/11/27 09:58:58;;;;;;;13.03;6.30;;;3.30;99.90;;;;;;4989850;28;20216;-94
2022/11/27 10:01:30;;;;;;;13.03;6.60;;;3.40;99.90;;;;;;4990061;28;20180;-92
2022/11/27 10:03:56;;;;;;;13.93;7.70;;;3.60;99.90;;;;;;4990468;28;20173;-88
2022/11/27 10:06:43;;;;;;;16.93;7.03;;;3.70;99.90;;;;;;4990433;28;20215;-87
2022/11/27 10:09:46;;;;;;;12.97;7.20;;;3.80;99.90;;;;;;4974003;28;20173;-92
2022/11/27 10:12:32;;;;;;;11.17;5.83;;;3.90;99.90;;;;;;4974348;28;20182;-93
2022/11/27 10:15:16;;;;;;;13.73;6.70;;;4.00;99.90;;;;;;4973997;28;20236;-91
2022/11/27 10:17:57;;;;;;;13.77;5.83;;;4.10;99.90;;;;;;4975269;28;20215;-91
2022/11/27 10:20:27;;;;;;;13.27;6.17;;;4.10;99.90;;;;;;4990468;28;20196;-85
2022/11/27 10:23:23;;;;;;;10.77;6.43;;;4.20;99.90;;;;;;4974096;28;20656;-93
2022/11/27 10:25:52;;;;;;;11.73;5.97;;;4.30;99.90;;;;;;4974022;28;20168;-87
2022/11/27 10:28:40;;;;;;;9.73;5.90;;;4.30;99.90;;;;;;4975350;28;20263;-89
2022/11/27 10:31:28;;;;;;;11.17;5.43;;;4.40;99.90;;;;;;4975421;28;20165;-86
2022/11/27 10:34:22;;;;;;;10.93;5.23;;;4.40;99.90;;;;;;4975208;28;20179;-88
2022/11/27 10:36:50;;;;;;;10.07;5.20;;;4.50;99.90;;;;;;4944638;28;20216;-90
2022/11/27 10:39:40;;;;;;;12.27;5.87;;;4.60;99.90;;;;;;4990277;28;20181;-88
2022/11/27 10:42:29;;;;;;;8.37;5.37;;;4.60;99.90;;;;;;4990277;28;20538;-88
2022/11/27 10:45:23;;;;;;;11.53;6.27;;;4.70;99.90;;;;;;4974080;28;20177;-87
2022/11/27 10:47:50;;;;;;;12.37;5.93;;;4.80;99.90;;;;;;4982988;28;20196;-91
2022/11/27 10:50:18;;;;;;;11.53;5.63;;;4.90;99.90;;;;;;4992875;28;20188;-91
2022/11/27 10:53:02;;;;;;;13.40;5.37;;;4.90;99.90;;;;;;4979103;28;20188;-88
2022/11/27 10:55:31;;;;;;;10.53;5.00;;;5.00;99.90;;;;;;4979222;28;20296;-91
2022/11/27 10:58:18;;;;;;;9.67;5.37;;;5.00;99.90;;;;;;4977620;28;20220;-92
2022/11/27 11:00:46;;;;;;;10.60;5.20;;;5.10;99.90;;;;;;4978881;28;20181;-91
2022/11/27 11:03:17;;;;;;;10.03;5.67;;;5.20;99.90;;;;;;4978749;28;20185;-90
2022/11/27 11:05:55;;;;;;;8.57;4.60;;;5.20;99.90;;;;;;4993843;28;20180;-90
2022/11/27 11:08:24;;;;;;;10.37;4.80;;;5.20;99.90;;;;;;4978720;28;20169;-91
2022/11/27 11:11:08;;;;;;;9.80;4.60;;;5.20;99.90;;;;;;4993481;28;20188;-90
2022/11/27 11:13:40;;;;;;;14.70;4.77;;;5.20;99.90;;;;;;4993366;28;20536;-89
2022/11/27 11:16:17;;;;;;;11.17;5.03;;;5.30;99.90;;;;;;4978529;28;20303;-90
2022/11/27 11:18:45;;;;;;;11.67;4.97;;;5.30;99.90;;;;;;4993820;28;20187;-89
2022/11/27 11:21:33;;;;;;;8.70;5.13;;;5.40;99.90;;;;;;4978420;28;20292;-87
2022/11/27 11:24:14;;;;;;;7.47;4.77;;;5.40;99.90;;;;;;4978332;28;20184;-90
2022/11/27 11:26:46;;;;;;;10.40;4.67;;;5.50;99.90;;;;;;4993350;28;20175;-86
2022/11/27 11:29:37;;;;;;;10.07;4.50;;;5.50;99.90;;;;;;4978428;28;20219;-86
2022/11/27 11:32:14;;;;;;;9.37;4.40;;;5.50;99.90;;;;;;4993974;28;20172;-89
2022/11/27 11:34:43;;;;;;;9.10;5.33;;;5.60;99.90;;;;;;4986615;28;20171;-87
2022/11/27 11:37:24;;;;;;;9.83;5.07;;;5.60;99.90;;;;;;4985677;28;20208;-89
2022/11/27 11:39:57;;;;;;;10.83;5.10;;;5.70;99.90;;;;;;4987529;28;20176;-91
2022/11/27 11:42:29;;;;;;;7.20;4.17;;;5.70;99.90;;;;;;4998275;28;20250;-88
2022/11/27 11:45:10;;;;;;;11.30;5.03;;;5.70;99.90;;;;;;4995029;28;20217;-90
2022/11/27 11:47:44;;;;;;;15.27;6.13;;;5.80;99.90;;;;;;5001288;28;20234;-89
2022/11/27 11:50:13;;;;;;;8.70;5.03;;;5.80;99.90;;;;;;4983597;28;20179;-86
2022/11/27 11:52:45;;;;;;;6.17;4.53;;;5.80;99.90;;;;;;4985237;28;20211;-91
2022/11/27 11:55:18;;;;;;;9.20;5.20;;;5.90;99.90;;;;;;4987627;28;20259;-90
2022/11/27 11:57:56;;;;;;;11.97;5.30;;;5.90;99.90;;;;;;4986589;28;20215;-89
2022/11/27 12:00:26;;;;;;;9.57;5.33;;;5.90;99.90;;;;;;4995211;28;20195;-87
2022/11/27 12:03:03;;;;;;;8.53;5.00;;;6.00;99.90;;;;;;5012371;28;20187;-86
2022/11/27 12:06:03;;;;;;;7.00;4.67;;;6.00;99.90;;;;;;5012276;28;20191;-87
2022/11/27 12:08:31;;;;;;;7.83;5.13;;;6.10;99.90;;;;;;4995627;28;20210;-88
2022/11/27 12:11:09;;;;;;;9.60;5.10;;;6.20;99.90;;;;;;4996896;28;20218;-90
2022/11/27 12:13:59;;;;;;;9.27;4.93;;;6.20;99.90;;;;;;4996666;28;20219;-89
2022/11/27 12:16:59;;;;;;;8.93;4.67;;;6.30;99.90;;;;;;5011776;28;20196;-88
2022/11/27 12:19:51;;;;;;;7.03;4.07;;;6.40;99.90;;;;;;4997484;28;20163;-91
2022/11/27 12:22:36;;;;;;;8.63;4.33;;;6.50;99.90;;;;;;4969644;28;20199;-86
2022/11/27 12:25:15;;;;;;;7.43;4.40;;;6.60;99.90;;;;;;5011905;28;20172;-85
2022/11/27 12:27:46;;;;;;;9.30;3.87;;;6.60;99.90;;;;;;5011582;28;20172;-86
2022/11/27 12:30:18;;;;;;;7.90;4.53;;;6.70;99.90;;;;;;4996602;28;20215;-86
2022/11/27 12:32:52;;;;;;;12.27;4.30;;;6.70;99.90;;;;;;4996650;28;20175;-84
2022/11/27 12:35:43;;;;;;;11.23;4.50;;;6.80;99.90;;;;;;4996635;28;20257;-85
2022/11/27 12:38:22;;;;;;;8.47;4.20;;;7.00;99.90;;;;;;5011893;28;20179;-87
2022/11/27 12:41:12;;;;;;;9.73;4.43;;;7.00;99.90;;;;;;4996711;28;20168;-85
2022/11/27 12:43:50;;;;;;;4.87;3.73;;;7.10;99.90;;;;;;5011588;28;20176;-85
2022/11/27 12:46:49;;;;;;;9.70;4.30;;;7.20;99.90;;;;;;4996866;28;20164;-91
2022/11/27 12:49:44;;;;;;;9.03;4.10;;;7.20;99.90;;;;;;5011850;28;20208;-90
2022/11/27 12:52:30;;;;;;;7.27;3.83;;;7.20;99.90;;;;;;4996838;28;20170;-89
2022/11/27 12:55:05;;;;;;;10.97;4.20;;;7.20;99.90;;;;;;4996777;28;20160;-89
2022/11/27 12:57:55;;;;;;;7.47;3.40;;;7.20;99.90;;;;;;4995287;28;20204;-90
2022/11/27 13:00:25;;;;;;;5.93;3.27;;;7.20;99.90;;;;;;4996529;28;20535;-89
2022/11/27 13:03:10;;;;;;;8.10;3.53;;;7.20;99.90;;;;;;4996628;28;20200;-90
2022/11/27 13:05:52;;;;;;;6.40;3.40;;;7.20;99.90;;;;;;4996805;28;20168;-90
2022/11/27 13:09:03;;;;;;;6.37;3.93;;;7.10;99.90;;;;;;5011763;28;20254;-88
2022/11/27 13:11:34;;;;;;;7.13;3.40;;;7.10;99.90;;;;;;4936824;29;20181;-89
2022/11/27 13:14:10;;;;;;;9.60;3.73;;;7.10;99.90;;;;;;4935142;29;20240;-91
2022/11/27 13:16:45;;;;;;;9.30;3.97;;;7.10;99.90;;;;;;4970360;28;20298;-88